sensor_id;sensor_type;location;lat;lon;timestamp;P1;durP1;ratioP1;P2;durP2;ratioP2
13660;SDS011;6903;49.480;11.102;2022-09-13T00:00:04;23.37;;;16.87;;
13660;SDS011;6903;49.480;11.102;2022-09-13T00:02:30;27.07;;;18.83;;
13660;SDS011;6903;49.480;11.102;2022-09-13T00:04:56;24.33;;;18.20;;
13660;SDS011;6903;49.480;11.102;2022-09-13T00:07:21;21.57;;;17.30;;
13660;SDS011;6903;49.480;11.102;2022-09-13T00:09:46;25.03;;;16.57;;
13660;SDS011;6903;49.480;11.102;2022-09-13T00:12:12;20.03;;;15.77;;
13660;SDS011;6903;49.480;11.102;2022-09-13T00:14:37;26.47;;;19.23;;
13660;SDS011;6903;49.480;11.102;2022-09-13T00:17:02;32.00;;;21.77;;
13660;SDS011;6903;49.480;11.102;2022-09-13T00:19:28;29.63;;;21.67;;
13660;SDS011;6903;49.480;11.102;2022-09-13T00:21:53;35.40;;;22.07;;
13660;SDS011;6903;49.480;11.102;2022-09-13T00:24:18;33.37;;;21.23;;
13660;SDS011;6903;49.480;11.102;2022-09-13T00:26:44;28.73;;;19.27;;
13660;SDS011;6903;49.480;11.102;2022-09-13T00:29:09;28.03;;;19.70;;
13660;SDS011;6903;49.480;11.102;2022-09-13T00:31:35;26.87;;;20.23;;
13660;SDS011;6903;49.480;11.102;2022-09-13T00:34:00;27.10;;;19.03;;
13660;SDS011;6903;49.480;11.102;2022-09-13T00:36:25;26.70;;;18.87;;
13660;SDS011;6903;49.480;11.102;2022-09-13T00:38:51;24.07;;;18.50;;
13660;SDS011;6903;49.480;11.102;2022-09-13T00:41:17;28.70;;;18.77;;
13660;SDS011;6903;49.480;11.102;2022-09-13T00:43:45;25.60;;;18.87;;
13660;SDS011;6903;49.480;11.102;2022-09-13T00:46:24;26.33;;;19.43;;
13660;SDS011;6903;49.480;11.102;2022-09-13T00:51:43;24.77;;;17.73;;
13660;SDS011;6903;49.480;11.102;2022-09-13T00:54:13;25.63;;;17.77;;
13660;SDS011;6903;49.480;11.102;2022-09-13T00:56:40;23.23;;;16.67;;
13660;SDS011;6903;49.480;11.102;2022-09-13T00:59:14;21.57;;;17.90;;
13660;SDS011;6903;49.480;11.102;2022-09-13T01:01:47;23.47;;;17.60;;
13660;SDS011;6903;49.480;11.102;2022-09-13T01:04:16;24.57;;;17.27;;
13660;SDS011;6903;49.480;11.102;2022-09-13T01:06:43;24.80;;;17.33;;
13660;SDS011;6903;49.480;11.102;2022-09-13T01:09:09;22.67;;;17.97;;
13660;SDS011;6903;49.480;11.102;2022-09-13T01:14:14;25.80;;;18.97;;
13660;SDS011;6903;49.480;11.102;2022-09-13T01:16:42;24.93;;;17.53;;
13660;SDS011;6903;49.480;11.102;2022-09-13T01:19:07;24.93;;;18.13;;
13660;SDS011;6903;49.480;11.102;2022-09-13T01:21:58;19.70;;;16.93;;
13660;SDS011;6903;49.480;11.102;2022-09-13T01:27:07;19.30;;;16.03;;
13660;SDS011;6903;49.480;11.102;2022-09-13T01:38:22;22.30;;;18.33;;
13660;SDS011;6903;49.480;11.102;2022-09-13T01:41:08;26.07;;;19.10;;
13660;SDS011;6903;49.480;11.102;2022-09-13T01:46:17;25.53;;;19.87;;
13660;SDS011;6903;49.480;11.102;2022-09-13T01:49:02;26.63;;;20.33;;
13660;SDS011;6903;49.480;11.102;2022-09-13T01:51:34;27.43;;;21.00;;
13660;SDS011;6903;49.480;11.102;2022-09-13T01:56:40;30.17;;;22.70;;
13660;SDS011;6903;49.480;11.102;2022-09-13T01:59:15;27.70;;;20.40;;
13660;SDS011;6903;49.480;11.102;2022-09-13T02:01:49;24.97;;;19.67;;
13660;SDS011;6903;49.480;11.102;2022-09-13T02:04:24;27.60;;;20.13;;
13660;SDS011;6903;49.480;11.102;2022-09-13T02:07:07;30.23;;;21.73;;
13660;SDS011;6903;49.480;11.102;2022-09-13T02:09:37;28.97;;;21.80;;
13660;SDS011;6903;49.480;11.102;2022-09-13T02:12:08;27.50;;;20.77;;
13660;SDS011;6903;49.480;11.102;2022-09-13T02:14:40;31.07;;;21.73;;
13660;SDS011;6903;49.480;11.102;2022-09-13T02:17:11;29.77;;;23.17;;
13660;SDS011;6903;49.480;11.102;2022-09-13T02:19:53;29.93;;;23.30;;
13660;SDS011;6903;49.480;11.102;2022-09-13T02:22:19;28.07;;;21.47;;
13660;SDS011;6903;49.480;11.102;2022-09-13T02:24:51;24.50;;;20.43;;
13660;SDS011;6903;49.480;11.102;2022-09-13T02:27:26;27.40;;;21.17;;
13660;SDS011;6903;49.480;11.102;2022-09-13T02:29:56;22.77;;;18.90;;
13660;SDS011;6903;49.480;11.102;2022-09-13T02:32:30;23.97;;;17.90;;
13660;SDS011;6903;49.480;11.102;2022-09-13T02:35:04;22.63;;;18.67;;
13660;SDS011;6903;49.480;11.102;2022-09-13T02:37:36;22.37;;;18.17;;
13660;SDS011;6903;49.480;11.102;2022-09-13T02:40:06;21.03;;;17.10;;
13660;SDS011;6903;49.480;11.102;2022-09-13T02:45:06;23.03;;;17.63;;
13660;SDS011;6903;49.480;11.102;2022-09-13T03:01:24;24.70;;;18.23;;
13660;SDS011;6903;49.480;11.102;2022-09-13T03:03:51;23.20;;;17.57;;
13660;SDS011;6903;49.480;11.102;2022-09-13T03:06:25;22.10;;;17.40;;
13660;SDS011;6903;49.480;11.102;2022-09-13T03:08:52;20.20;;;16.97;;
13660;SDS011;6903;49.480;11.102;2022-09-13T03:14:15;24.07;;;17.13;;
13660;SDS011;6903;49.480;11.102;2022-09-13T03:16:50;20.67;;;16.90;;
13660;SDS011;6903;49.480;11.102;2022-09-13T03:31:05;23.30;;;17.87;;
13660;SDS011;6903;49.480;11.102;2022-09-13T03:33:41;24.10;;;18.97;;
13660;SDS011;6903;49.480;11.102;2022-09-13T03:36:24;23.47;;;19.20;;
13660;SDS011;6903;49.480;11.102;2022-09-13T03:39:02;26.20;;;19.83;;
13660;SDS011;6903;49.480;11.102;2022-09-13T03:41:31;26.83;;;20.83;;
13660;SDS011;6903;49.480;11.102;2022-09-13T03:44:05;25.43;;;20.27;;
13660;SDS011;6903;49.480;11.102;2022-09-13T03:46:38;24.73;;;19.77;;
13660;SDS011;6903;49.480;11.102;2022-09-13T03:49:07;23.27;;;19.00;;
13660;SDS011;6903;49.480;11.102;2022-09-13T03:51:36;26.20;;;19.43;;
13660;SDS011;6903;49.480;11.102;2022-09-13T03:54:04;28.73;;;19.77;;
13660;SDS011;6903;49.480;11.102;2022-09-13T03:56:32;26.07;;;21.43;;
13660;SDS011;6903;49.480;11.102;2022-09-13T03:58:58;25.70;;;19.17;;
13660;SDS011;6903;49.480;11.102;2022-09-13T04:01:24;25.63;;;18.80;;
13660;SDS011;6903;49.480;11.102;2022-09-13T04:03:50;25.23;;;19.70;;
13660;SDS011;6903;49.480;11.102;2022-09-13T04:06:15;33.50;;;23.53;;
13660;SDS011;6903;49.480;11.102;2022-09-13T04:08:41;32.13;;;23.33;;
13660;SDS011;6903;49.480;11.102;2022-09-13T04:11:07;33.80;;;24.13;;
13660;SDS011;6903;49.480;11.102;2022-09-13T04:13:33;28.93;;;22.70;;
13660;SDS011;6903;49.480;11.102;2022-09-13T04:16:00;33.13;;;23.97;;
13660;SDS011;6903;49.480;11.102;2022-09-13T04:18:26;35.43;;;25.87;;
13660;SDS011;6903;49.480;11.102;2022-09-13T04:20:53;33.50;;;25.47;;
13660;SDS011;6903;49.480;11.102;2022-09-13T04:23:20;31.40;;;24.37;;
13660;SDS011;6903;49.480;11.102;2022-09-13T04:25:45;35.20;;;26.57;;
13660;SDS011;6903;49.480;11.102;2022-09-13T04:28:11;37.77;;;26.80;;
13660;SDS011;6903;49.480;11.102;2022-09-13T04:30:36;35.03;;;26.77;;
13660;SDS011;6903;49.480;11.102;2022-09-13T04:33:01;34.97;;;26.07;;
13660;SDS011;6903;49.480;11.102;2022-09-13T04:35:27;25.57;;;19.90;;
13660;SDS011;6903;49.480;11.102;2022-09-13T04:37:55;31.53;;;23.93;;
13660;SDS011;6903;49.480;11.102;2022-09-13T04:40:22;29.30;;;24.17;;
13660;SDS011;6903;49.480;11.102;2022-09-13T04:42:47;36.33;;;26.33;;
13660;SDS011;6903;49.480;11.102;2022-09-13T04:45:13;33.00;;;26.07;;
13660;SDS011;6903;49.480;11.102;2022-09-13T04:47:38;31.80;;;24.87;;
13660;SDS011;6903;49.480;11.102;2022-09-13T04:50:04;35.30;;;23.67;;
13660;SDS011;6903;49.480;11.102;2022-09-13T04:52:31;29.50;;;22.83;;
13660;SDS011;6903;49.480;11.102;2022-09-13T04:54:56;26.30;;;20.40;;
13660;SDS011;6903;49.480;11.102;2022-09-13T04:57:25;24.27;;;18.23;;
13660;SDS011;6903;49.480;11.102;2022-09-13T04:59:50;23.73;;;17.17;;
13660;SDS011;6903;49.480;11.102;2022-09-13T05:02:16;17.23;;;14.57;;
13660;SDS011;6903;49.480;11.102;2022-09-13T05:04:41;23.53;;;18.90;;
13660;SDS011;6903;49.480;11.102;2022-09-13T05:07:06;24.87;;;19.47;;
13660;SDS011;6903;49.480;11.102;2022-09-13T05:09:32;24.43;;;19.57;;
13660;SDS011;6903;49.480;11.102;2022-09-13T05:11:57;22.83;;;17.60;;
13660;SDS011;6903;49.480;11.102;2022-09-13T05:14:22;21.97;;;17.47;;
13660;SDS011;6903;49.480;11.102;2022-09-13T05:16:48;23.10;;;18.10;;
13660;SDS011;6903;49.480;11.102;2022-09-13T05:19:13;20.00;;;17.40;;
13660;SDS011;6903;49.480;11.102;2022-09-13T05:21:38;20.93;;;17.07;;
13660;SDS011;6903;49.480;11.102;2022-09-13T05:24:04;22.90;;;17.43;;
13660;SDS011;6903;49.480;11.102;2022-09-13T05:26:29;19.80;;;16.27;;
13660;SDS011;6903;49.480;11.102;2022-09-13T05:28:56;20.07;;;15.10;;
13660;SDS011;6903;49.480;11.102;2022-09-13T05:31:28;18.03;;;14.83;;
13660;SDS011;6903;49.480;11.102;2022-09-13T05:33:59;18.10;;;14.00;;
13660;SDS011;6903;49.480;11.102;2022-09-13T05:36:29;14.17;;;12.43;;
13660;SDS011;6903;49.480;11.102;2022-09-13T05:38:55;12.50;;;11.27;;
13660;SDS011;6903;49.480;11.102;2022-09-13T05:41:21;15.47;;;11.50;;
13660;SDS011;6903;49.480;11.102;2022-09-13T05:43:47;14.97;;;10.77;;
13660;SDS011;6903;49.480;11.102;2022-09-13T05:46:14;14.67;;;10.63;;
13660;SDS011;6903;49.480;11.102;2022-09-13T05:48:41;13.50;;;10.60;;
13660;SDS011;6903;49.480;11.102;2022-09-13T05:51:17;10.70;;;9.63;;
13660;SDS011;6903;49.480;11.102;2022-09-13T05:53:45;10.80;;;9.23;;
13660;SDS011;6903;49.480;11.102;2022-09-13T05:56:13;10.17;;;7.67;;
13660;SDS011;6903;49.480;11.102;2022-09-13T05:58:40;8.70;;;7.80;;
13660;SDS011;6903;49.480;11.102;2022-09-13T06:01:07;10.93;;;7.53;;
13660;SDS011;6903;49.480;11.102;2022-09-13T06:03:33;8.90;;;6.80;;
13660;SDS011;6903;49.480;11.102;2022-09-13T06:06:00;8.20;;;6.72;;
13660;SDS011;6903;49.480;11.102;2022-09-13T06:08:26;7.25;;;6.55;;
13660;SDS011;6903;49.480;11.102;2022-09-13T06:10:56;8.73;;;6.90;;
13660;SDS011;6903;49.480;11.102;2022-09-13T06:13:27;9.00;;;6.82;;
13660;SDS011;6903;49.480;11.102;2022-09-13T06:15:53;7.57;;;6.55;;
13660;SDS011;6903;49.480;11.102;2022-09-13T06:18:20;7.55;;;6.75;;
13660;SDS011;6903;49.480;11.102;2022-09-13T06:20:45;7.35;;;6.65;;
13660;SDS011;6903;49.480;11.102;2022-09-13T06:23:12;7.78;;;6.75;;
13660;SDS011;6903;49.480;11.102;2022-09-13T06:25:37;7.65;;;6.95;;
13660;SDS011;6903;49.480;11.102;2022-09-13T06:28:03;7.10;;;6.40;;
13660;SDS011;6903;49.480;11.102;2022-09-13T06:30:28;8.60;;;7.20;;
13660;SDS011;6903;49.480;11.102;2022-09-13T06:32:57;7.20;;;6.50;;
13660;SDS011;6903;49.480;11.102;2022-09-13T06:35:23;7.13;;;6.43;;
13660;SDS011;6903;49.480;11.102;2022-09-13T06:37:48;8.48;;;7.53;;
13660;SDS011;6903;49.480;11.102;2022-09-13T06:40:14;9.18;;;7.90;;
13660;SDS011;6903;49.480;11.102;2022-09-13T06:42:40;11.02;;;7.55;;
13660;SDS011;6903;49.480;11.102;2022-09-13T06:45:07;7.45;;;6.65;;
13660;SDS011;6903;49.480;11.102;2022-09-13T06:47:33;10.48;;;7.93;;
13660;SDS011;6903;49.480;11.102;2022-09-13T06:49:58;7.30;;;6.60;;
13660;SDS011;6903;49.480;11.102;2022-09-13T06:52:24;8.55;;;7.30;;
13660;SDS011;6903;49.480;11.102;2022-09-13T06:54:50;8.10;;;7.28;;
13660;SDS011;6903;49.480;11.102;2022-09-13T06:57:15;8.80;;;7.05;;
13660;SDS011;6903;49.480;11.102;2022-09-13T06:59:40;8.10;;;7.20;;
13660;SDS011;6903;49.480;11.102;2022-09-13T07:02:06;8.18;;;7.07;;
13660;SDS011;6903;49.480;11.102;2022-09-13T07:04:31;8.32;;;7.43;;
13660;SDS011;6903;49.480;11.102;2022-09-13T07:06:57;9.57;;;7.45;;
13660;SDS011;6903;49.480;11.102;2022-09-13T07:09:23;9.38;;;7.40;;
13660;SDS011;6903;49.480;11.102;2022-09-13T07:11:50;9.75;;;7.30;;
13660;SDS011;6903;49.480;11.102;2022-09-13T07:14:18;9.88;;;7.50;;
13660;SDS011;6903;49.480;11.102;2022-09-13T07:16:46;9.80;;;7.15;;
13660;SDS011;6903;49.480;11.102;2022-09-13T07:19:12;7.88;;;7.03;;
13660;SDS011;6903;49.480;11.102;2022-09-13T07:21:40;8.73;;;7.05;;
13660;SDS011;6903;49.480;11.102;2022-09-13T07:24:06;9.05;;;6.70;;
13660;SDS011;6903;49.480;11.102;2022-09-13T07:26:31;8.75;;;6.78;;
13660;SDS011;6903;49.480;11.102;2022-09-13T07:28:58;8.63;;;6.72;;
13660;SDS011;6903;49.480;11.102;2022-09-13T07:31:31;6.90;;;6.28;;
13660;SDS011;6903;49.480;11.102;2022-09-13T07:34:00;7.07;;;6.47;;
13660;SDS011;6903;49.480;11.102;2022-09-13T07:36:27;8.50;;;6.40;;
13660;SDS011;6903;49.480;11.102;2022-09-13T07:38:54;7.97;;;6.80;;
13660;SDS011;6903;49.480;11.102;2022-09-13T07:41:21;6.80;;;5.95;;
13660;SDS011;6903;49.480;11.102;2022-09-13T07:43:47;10.55;;;6.15;;
13660;SDS011;6903;49.480;11.102;2022-09-13T07:46:13;7.10;;;6.50;;
13660;SDS011;6903;49.480;11.102;2022-09-13T07:48:44;6.32;;;5.72;;
13660;SDS011;6903;49.480;11.102;2022-09-13T07:51:11;7.63;;;6.32;;
13660;SDS011;6903;49.480;11.102;2022-09-13T07:53:39;10.13;;;6.03;;
13660;SDS011;6903;49.480;11.102;2022-09-13T07:58:33;7.68;;;6.00;;
13660;SDS011;6903;49.480;11.102;2022-09-13T08:01:01;7.50;;;6.13;;
13660;SDS011;6903;49.480;11.102;2022-09-13T08:03:31;7.93;;;5.47;;
13660;SDS011;6903;49.480;11.102;2022-09-13T08:05:57;6.70;;;6.00;;
13660;SDS011;6903;49.480;11.102;2022-09-13T08:08:22;6.05;;;5.43;;
13660;SDS011;6903;49.480;11.102;2022-09-13T08:10:48;10.77;;;6.25;;
13660;SDS011;6903;49.480;11.102;2022-09-13T08:13:16;6.93;;;5.70;;
13660;SDS011;6903;49.480;11.102;2022-09-13T08:15:41;6.53;;;5.93;;
13660;SDS011;6903;49.480;11.102;2022-09-13T08:18:07;5.47;;;4.97;;
13660;SDS011;6903;49.480;11.102;2022-09-13T08:20:39;5.13;;;4.72;;
13660;SDS011;6903;49.480;11.102;2022-09-13T08:23:05;5.57;;;4.95;;
13660;SDS011;6903;49.480;11.102;2022-09-13T08:25:32;9.25;;;5.57;;
13660;SDS011;6903;49.480;11.102;2022-09-13T08:28:04;5.15;;;4.28;;
13660;SDS011;6903;49.480;11.102;2022-09-13T08:30:30;5.90;;;5.30;;
13660;SDS011;6903;49.480;11.102;2022-09-13T08:33:00;4.78;;;4.38;;
13660;SDS011;6903;49.480;11.102;2022-09-13T08:35:27;6.05;;;5.32;;
13660;SDS011;6903;49.480;11.102;2022-09-13T08:37:53;7.13;;;5.10;;
13660;SDS011;6903;49.480;11.102;2022-09-13T08:40:19;5.07;;;4.57;;
13660;SDS011;6903;49.480;11.102;2022-09-13T08:45:14;5.78;;;5.00;;
13660;SDS011;6903;49.480;11.102;2022-09-13T08:47:45;4.93;;;4.43;;
13660;SDS011;6903;49.480;11.102;2022-09-13T08:50:21;5.60;;;4.88;;
13660;SDS011;6903;49.480;11.102;2022-09-13T09:06:31;6.60;;;4.78;;
13660;SDS011;6903;49.480;11.102;2022-09-13T09:09:02;5.05;;;4.25;;
13660;SDS011;6903;49.480;11.102;2022-09-13T09:11:34;4.82;;;4.38;;
13660;SDS011;6903;49.480;11.102;2022-09-13T09:14:52;6.25;;;4.53;;
13660;SDS011;6903;49.480;11.102;2022-09-13T09:17:04;5.38;;;4.70;;
13660;SDS011;6903;49.480;11.102;2022-09-13T09:19:37;6.97;;;4.68;;
13660;SDS011;6903;49.480;11.102;2022-09-13T09:22:17;4.95;;;4.40;;
13660;SDS011;6903;49.480;11.102;2022-09-13T09:24:49;4.70;;;4.18;;
13660;SDS011;6903;49.480;11.102;2022-09-13T09:27:19;4.97;;;4.15;;
13660;SDS011;6903;49.480;11.102;2022-09-13T09:29:46;6.20;;;4.72;;
13660;SDS011;6903;49.480;11.102;2022-09-13T09:35:44;5.43;;;4.75;;
13660;SDS011;6903;49.480;11.102;2022-09-13T09:40:55;8.30;;;5.15;;
13660;SDS011;6903;49.480;11.102;2022-09-13T09:44:17;5.15;;;4.70;;
13660;SDS011;6903;49.480;11.102;2022-09-13T09:46:32;4.90;;;4.40;;
13660;SDS011;6903;49.480;11.102;2022-09-13T09:58:38;5.13;;;4.47;;
13660;SDS011;6903;49.480;11.102;2022-09-13T10:01:05;4.15;;;3.72;;
13660;SDS011;6903;49.480;11.102;2022-09-13T10:03:48;10.35;;;4.88;;
13660;SDS011;6903;49.480;11.102;2022-09-13T10:06:20;7.95;;;4.55;;
13660;SDS011;6903;49.480;11.102;2022-09-13T10:09:01;7.80;;;5.00;;
13660;SDS011;6903;49.480;11.102;2022-09-13T10:11:39;8.48;;;5.28;;
13660;SDS011;6903;49.480;11.102;2022-09-13T10:14:25;5.32;;;4.82;;
13660;SDS011;6903;49.480;11.102;2022-09-13T10:17:12;5.07;;;4.07;;
13660;SDS011;6903;49.480;11.102;2022-09-13T10:19:57;5.95;;;5.40;;
13660;SDS011;6903;49.480;11.102;2022-09-13T10:22:26;5.25;;;4.75;;
13660;SDS011;6903;49.480;11.102;2022-09-13T10:24:53;5.85;;;4.50;;
13660;SDS011;6903;49.480;11.102;2022-09-13T10:29:51;6.13;;;5.03;;
13660;SDS011;6903;49.480;11.102;2022-09-13T10:32:23;7.63;;;4.80;;
13660;SDS011;6903;49.480;11.102;2022-09-13T10:34:50;5.55;;;5.05;;
13660;SDS011;6903;49.480;11.102;2022-09-13T10:37:22;6.72;;;4.85;;
13660;SDS011;6903;49.480;11.102;2022-09-13T10:42:33;6.05;;;4.20;;
13660;SDS011;6903;49.480;11.102;2022-09-13T10:45:03;6.53;;;4.85;;
13660;SDS011;6903;49.480;11.102;2022-09-13T10:47:33;7.00;;;4.32;;
13660;SDS011;6903;49.480;11.102;2022-09-13T10:50:11;5.72;;;4.90;;
13660;SDS011;6903;49.480;11.102;2022-09-13T10:52:44;6.13;;;4.70;;
13660;SDS011;6903;49.480;11.102;2022-09-13T10:57:43;7.55;;;5.25;;
13660;SDS011;6903;49.480;11.102;2022-09-13T11:00:09;5.22;;;4.00;;
13660;SDS011;6903;49.480;11.102;2022-09-13T11:05:28;7.05;;;5.50;;
13660;SDS011;6903;49.480;11.102;2022-09-13T11:08:13;5.25;;;4.20;;
13660;SDS011;6903;49.480;11.102;2022-09-13T11:10:58;6.68;;;4.72;;
13660;SDS011;6903;49.480;11.102;2022-09-13T11:28:01;7.20;;;3.60;;
13660;SDS011;6903;49.480;11.102;2022-09-13T11:33:49;6.78;;;3.75;;
13660;SDS011;6903;49.480;11.102;2022-09-13T11:42:01;5.72;;;3.90;;
13660;SDS011;6903;49.480;11.102;2022-09-13T11:47:43;3.88;;;3.50;;
13660;SDS011;6903;49.480;11.102;2022-09-13T11:50:34;4.30;;;3.88;;
13660;SDS011;6903;49.480;11.102;2022-09-13T11:53:13;6.13;;;3.42;;
13660;SDS011;6903;49.480;11.102;2022-09-13T11:55:46;25.83;;;4.22;;
13660;SDS011;6903;49.480;11.102;2022-09-13T11:58:22;3.22;;;2.22;;
13660;SDS011;6903;49.480;11.102;2022-09-13T12:00:53;9.27;;;3.58;;
13660;SDS011;6903;49.480;11.102;2022-09-13T12:03:25;4.72;;;3.40;;
13660;SDS011;6903;49.480;11.102;2022-09-13T12:08:50;3.00;;;2.50;;
13660;SDS011;6903;49.480;11.102;2022-09-13T12:11:22;4.50;;;3.13;;
13660;SDS011;6903;49.480;11.102;2022-09-13T12:13:54;6.65;;;3.47;;
13660;SDS011;6903;49.480;11.102;2022-09-13T12:16:25;3.42;;;3.00;;
13660;SDS011;6903;49.480;11.102;2022-09-13T12:18:56;5.40;;;4.43;;
13660;SDS011;6903;49.480;11.102;2022-09-13T12:21:25;3.53;;;3.22;;
13660;SDS011;6903;49.480;11.102;2022-09-13T12:29:29;6.88;;;4.22;;
13660;SDS011;6903;49.480;11.102;2022-09-13T12:32:02;3.33;;;2.67;;
13660;SDS011;6903;49.480;11.102;2022-09-13T12:34:41;4.00;;;3.30;;
13660;SDS011;6903;49.480;11.102;2022-09-13T12:37:14;3.95;;;3.60;;
13660;SDS011;6903;49.480;11.102;2022-09-13T12:42:44;3.88;;;3.58;;
13660;SDS011;6903;49.480;11.102;2022-09-13T12:45:31;3.67;;;3.38;;
13660;SDS011;6903;49.480;11.102;2022-09-13T12:48:25;3.70;;;3.40;;
13660;SDS011;6903;49.480;11.102;2022-09-13T12:51:19;3.50;;;3.20;;
13660;SDS011;6903;49.480;11.102;2022-09-13T12:57:14;3.90;;;3.33;;
13660;SDS011;6903;49.480;11.102;2022-09-13T13:02:33;4.20;;;3.20;;
13660;SDS011;6903;49.480;11.102;2022-09-13T13:05:06;4.55;;;3.75;;
13660;SDS011;6903;49.480;11.102;2022-09-13T13:07:49;3.13;;;2.92;;
13660;SDS011;6903;49.480;11.102;2022-09-13T13:10:22;3.72;;;3.35;;
13660;SDS011;6903;49.480;11.102;2022-09-13T13:12:51;3.53;;;3.22;;
13660;SDS011;6903;49.480;11.102;2022-09-13T13:17:48;3.83;;;3.53;;
13660;SDS011;6903;49.480;11.102;2022-09-13T13:33:48;3.47;;;3.17;;
13660;SDS011;6903;49.480;11.102;2022-09-13T13:38:53;4.05;;;3.58;;
13660;SDS011;6903;49.480;11.102;2022-09-13T13:43:58;3.95;;;3.22;;
13660;SDS011;6903;49.480;11.102;2022-09-13T13:46:25;4.35;;;3.15;;
13660;SDS011;6903;49.480;11.102;2022-09-13T13:48:55;3.75;;;3.42;;
13660;SDS011;6903;49.480;11.102;2022-09-13T13:51:41;3.40;;;3.10;;
13660;SDS011;6903;49.480;11.102;2022-09-13T13:54:27;3.70;;;3.40;;
13660;SDS011;6903;49.480;11.102;2022-09-13T13:56:54;3.97;;;2.38;;
13660;SDS011;6903;49.480;11.102;2022-09-13T13:59:22;3.75;;;3.42;;
13660;SDS011;6903;49.480;11.102;2022-09-13T14:01:52;4.72;;;3.22;;
13660;SDS011;6903;49.480;11.102;2022-09-13T14:04:42;4.63;;;3.60;;
13660;SDS011;6903;49.480;11.102;2022-09-13T14:07:22;5.07;;;3.20;;
13660;SDS011;6903;49.480;11.102;2022-09-13T14:09:59;3.80;;;2.95;;
13660;SDS011;6903;49.480;11.102;2022-09-13T14:15:21;3.70;;;3.40;;
13660;SDS011;6903;49.480;11.102;2022-09-13T14:18:09;13.93;;;12.48;;
13660;SDS011;6903;49.480;11.102;2022-09-13T14:21:02;4.47;;;4.07;;
13660;SDS011;6903;49.480;11.102;2022-09-13T14:23:29;4.53;;;3.75;;
13660;SDS011;6903;49.480;11.102;2022-09-13T14:25:56;4.15;;;3.85;;
13660;SDS011;6903;49.480;11.102;2022-09-13T14:28:23;6.18;;;4.10;;
13660;SDS011;6903;49.480;11.102;2022-09-13T14:30:53;4.43;;;3.95;;
13660;SDS011;6903;49.480;11.102;2022-09-13T14:33:23;4.00;;;3.70;;
13660;SDS011;6903;49.480;11.102;2022-09-13T14:36:06;4.97;;;3.90;;
13660;SDS011;6903;49.480;11.102;2022-09-13T14:38:45;4.18;;;3.53;;
13660;SDS011;6903;49.480;11.102;2022-09-13T14:41:19;4.60;;;4.20;;
13660;SDS011;6903;49.480;11.102;2022-09-13T14:43:46;4.60;;;3.72;;
13660;SDS011;6903;49.480;11.102;2022-09-13T14:46:30;5.25;;;3.58;;
13660;SDS011;6903;49.480;11.102;2022-09-13T14:49:05;4.13;;;3.50;;
13660;SDS011;6903;49.480;11.102;2022-09-13T14:51:43;3.95;;;3.60;;
13660;SDS011;6903;49.480;11.102;2022-09-13T14:57:27;4.80;;;3.78;;
13660;SDS011;6903;49.480;11.102;2022-09-13T14:59:59;5.65;;;4.03;;
13660;SDS011;6903;49.480;11.102;2022-09-13T15:02:30;4.57;;;4.13;;
13660;SDS011;6903;49.480;11.102;2022-09-13T15:05:00;4.47;;;3.75;;
13660;SDS011;6903;49.480;11.102;2022-09-13T15:07:33;4.32;;;3.60;;
13660;SDS011;6903;49.480;11.102;2022-09-13T15:10:05;4.65;;;3.70;;
13660;SDS011;6903;49.480;11.102;2022-09-13T15:12:35;4.55;;;4.10;;
13660;SDS011;6903;49.480;11.102;2022-09-13T15:31:09;5.40;;;4.78;;
13660;SDS011;6903;49.480;11.102;2022-09-13T15:33:35;6.32;;;4.68;;
13660;SDS011;6903;49.480;11.102;2022-09-13T15:39:02;5.07;;;4.25;;
13660;SDS011;6903;49.480;11.102;2022-09-13T15:41:34;6.13;;;5.07;;
13660;SDS011;6903;49.480;11.102;2022-09-13T15:44:14;5.10;;;4.55;;
13660;SDS011;6903;49.480;11.102;2022-09-13T15:46:47;5.47;;;4.60;;
13660;SDS011;6903;49.480;11.102;2022-09-13T15:49:17;6.40;;;4.85;;
13660;SDS011;6903;49.480;11.102;2022-09-13T15:51:44;6.45;;;5.00;;
13660;SDS011;6903;49.480;11.102;2022-09-13T15:54:11;4.57;;;4.13;;
13660;SDS011;6903;49.480;11.102;2022-09-13T15:56:38;5.50;;;4.55;;
13660;SDS011;6903;49.480;11.102;2022-09-13T15:59:07;4.65;;;4.13;;
13660;SDS011;6903;49.480;11.102;2022-09-13T16:01:36;7.63;;;4.60;;
13660;SDS011;6903;49.480;11.102;2022-09-13T16:04:02;7.22;;;4.57;;
13660;SDS011;6903;49.480;11.102;2022-09-13T16:06:29;5.35;;;4.80;;
13660;SDS011;6903;49.480;11.102;2022-09-13T16:08:54;4.43;;;3.80;;
13660;SDS011;6903;49.480;11.102;2022-09-13T16:11:19;4.55;;;4.15;;
13660;SDS011;6903;49.480;11.102;2022-09-13T16:13:45;5.18;;;4.70;;
13660;SDS011;6903;49.480;11.102;2022-09-13T16:16:13;6.55;;;4.82;;
13660;SDS011;6903;49.480;11.102;2022-09-13T16:18:39;6.80;;;4.85;;
13660;SDS011;6903;49.480;11.102;2022-09-13T16:21:04;5.63;;;4.40;;
13660;SDS011;6903;49.480;11.102;2022-09-13T16:23:30;7.50;;;4.70;;
13660;SDS011;6903;49.480;11.102;2022-09-13T16:25:55;5.10;;;4.00;;
13660;SDS011;6903;49.480;11.102;2022-09-13T16:28:22;9.30;;;4.88;;
13660;SDS011;6903;49.480;11.102;2022-09-13T16:30:48;6.22;;;4.53;;
13660;SDS011;6903;49.480;11.102;2022-09-13T16:33:14;10.02;;;5.40;;
13660;SDS011;6903;49.480;11.102;2022-09-13T16:35:39;16.52;;;6.40;;
13660;SDS011;6903;49.480;11.102;2022-09-13T16:38:05;10.27;;;5.65;;
13660;SDS011;6903;49.480;11.102;2022-09-13T16:40:30;6.25;;;5.20;;
13660;SDS011;6903;49.480;11.102;2022-09-13T16:42:56;4.85;;;4.45;;
13660;SDS011;6903;49.480;11.102;2022-09-13T16:45:21;5.28;;;4.72;;
13660;SDS011;6903;49.480;11.102;2022-09-13T16:47:47;5.57;;;4.32;;
13660;SDS011;6903;49.480;11.102;2022-09-13T16:50:13;10.82;;;5.32;;
13660;SDS011;6903;49.480;11.102;2022-09-13T16:52:39;5.75;;;4.40;;
13660;SDS011;6903;49.480;11.102;2022-09-13T16:55:04;5.53;;;4.85;;
13660;SDS011;6903;49.480;11.102;2022-09-13T16:57:30;6.53;;;4.75;;
13660;SDS011;6903;49.480;11.102;2022-09-13T16:59:56;5.47;;;4.65;;
13660;SDS011;6903;49.480;11.102;2022-09-13T17:02:22;7.40;;;4.80;;
13660;SDS011;6903;49.480;11.102;2022-09-13T17:04:49;5.55;;;4.88;;
13660;SDS011;6903;49.480;11.102;2022-09-13T17:07:14;6.53;;;5.55;;
13660;SDS011;6903;49.480;11.102;2022-09-13T17:09:39;5.50;;;4.97;;
13660;SDS011;6903;49.480;11.102;2022-09-13T17:12:06;7.85;;;5.00;;
13660;SDS011;6903;49.480;11.102;2022-09-13T17:14:33;5.72;;;5.10;;
13660;SDS011;6903;49.480;11.102;2022-09-13T17:16:58;6.28;;;5.55;;
13660;SDS011;6903;49.480;11.102;2022-09-13T17:19:26;6.85;;;5.68;;
13660;SDS011;6903;49.480;11.102;2022-09-13T17:21:55;6.43;;;5.78;;
13660;SDS011;6903;49.480;11.102;2022-09-13T17:24:22;10.70;;;6.30;;
13660;SDS011;6903;49.480;11.102;2022-09-13T17:26:48;5.78;;;4.78;;
13660;SDS011;6903;49.480;11.102;2022-09-13T17:29:13;5.80;;;5.18;;
13660;SDS011;6903;49.480;11.102;2022-09-13T17:31:39;6.78;;;5.70;;
13660;SDS011;6903;49.480;11.102;2022-09-13T17:34:04;7.57;;;5.55;;
13660;SDS011;6903;49.480;11.102;2022-09-13T17:36:30;5.70;;;5.20;;
13660;SDS011;6903;49.480;11.102;2022-09-13T17:38:55;6.30;;;5.53;;
13660;SDS011;6903;49.480;11.102;2022-09-13T17:41:22;8.70;;;6.68;;
13660;SDS011;6903;49.480;11.102;2022-09-13T17:43:48;8.95;;;6.85;;
13660;SDS011;6903;49.480;11.102;2022-09-13T17:46:15;6.70;;;5.65;;
13660;SDS011;6903;49.480;11.102;2022-09-13T17:48:42;8.68;;;6.25;;
13660;SDS011;6903;49.480;11.102;2022-09-13T17:51:09;7.10;;;6.40;;
13660;SDS011;6903;49.480;11.102;2022-09-13T17:54:09;7.20;;;6.50;;
13660;SDS011;6903;49.480;11.102;2022-09-13T17:58:55;8.23;;;6.82;;
13660;SDS011;6903;49.480;11.102;2022-09-13T18:01:22;7.82;;;7.00;;
13660;SDS011;6903;49.480;11.102;2022-09-13T18:03:47;8.35;;;7.35;;